Time,TemperatureF,DewpointF,PressureIn,WindDirection,WindDirectionDegrees,WindSpeedMPH,WindSpeedGustMPH,Humidity,HourlyPrecipIn,Conditions,Clouds,dailyrainin,SolarRadiationWatts/m^2,SoftwareType,DateUTC
2013-05-02 00:00:00,70.0,51.0,-100.00,North,0,3.0,-999.0,50,-99.99,,,-99.99,0.000000,,2013-05-02 04:00:00,
2013-05-02 00:43:00,70.0,51.0,-100.00,North,0,3.0,-999.0,50,-99.99,,,-99.99,0.000000,,2013-05-02 04:43:00,
2013-05-02 00:52:00,70.0,51.0,-100.00,North,0,3.0,-999.0,50,-99.99,,,-99.99,0.000000,,2013-05-02 04:52:00,
2013-05-02 01:00:00,69.0,51.0,-100.00,North,0,3.0,-999.0,53,-99.99,,,-99.99,0.000000,,2013-05-02 05:00:00,
2013-05-02 01:42:00,69.0,51.0,-100.00,North,0,3.0,-999.0,53,-99.99,,,-99.99,0.000000,,2013-05-02 05:42:00,
2013-05-02 01:52:00,69.0,51.0,-100.00,North,0,3.0,-999.0,53,-99.99,,,-99.99,0.000000,,2013-05-02 05:52:00,
2013-05-02 04:00:00,66.0,52.0,-100.00,NNE,22,5.0,-999.0,59,-99.99,,,-99.99,0.000000,,2013-05-02 08:00:00,
2013-05-02 04:42:00,66.0,52.0,-100.00,NNE,22,5.0,-999.0,59,-99.99,,,-99.99,0.000000,,2013-05-02 08:42:00,
2013-05-02 04:52:00,66.0,52.0,-100.00,NNE,22,5.0,-999.0,59,-99.99,,,-99.99,0.000000,,2013-05-02 08:52:00,
2013-05-02 05:00:00,65.0,52.0,-100.00,North,0,6.0,-999.0,61,-99.99,,,-99.99,0.000000,,2013-05-02 09:00:00,
2013-05-02 05:42:00,65.0,52.0,-100.00,North,0,6.0,-999.0,61,-99.99,,,-99.99,0.000000,,2013-05-02 09:42:00,
2013-05-02 05:52:00,65.0,52.0,-100.00,North,0,6.0,-999.0,61,-99.99,,,-99.99,0.000000,,2013-05-02 09:52:00,
2013-05-02 06:00:00,63.0,52.0,-100.00,East,90,3.0,-999.0,67,-99.99,,,-99.99,0.000000,,2013-05-02 10:00:00,
2013-05-02 06:42:00,63.0,52.0,-100.00,East,90,3.0,-999.0,67,-99.99,,,-99.99,0.000000,,2013-05-02 10:42:00,
2013-05-02 06:53:00,63.0,52.0,-100.00,East,90,3.0,-999.0,67,-99.99,,,-99.99,0.000000,,2013-05-02 10:53:00,
2013-05-02 07:00:00,59.0,52.0,-100.00,West,270,1.0,-999.0,76,-99.99,,,-99.99,2.320000,,2013-05-02 11:00:00,
2013-05-02 07:42:00,59.0,52.0,-100.00,West,270,1.0,-999.0,76,-99.99,,,-99.99,2.320000,,2013-05-02 11:42:00,
2013-05-02 07:52:00,59.0,52.0,-100.00,West,270,1.0,-999.0,76,-99.99,,,-99.99,2.320000,,2013-05-02 11:52:00,
2013-05-02 09:00:00,64.0,54.0,-100.00,NE,45,3.0,-999.0,70,-99.99,,,-99.99,206.479996,,2013-05-02 13:00:00,
2013-05-02 09:42:00,64.0,54.0,-100.00,NE,45,3.0,-999.0,70,-99.99,,,-99.99,206.479996,,2013-05-02 13:42:00,
2013-05-02 09:52:00,64.0,54.0,-100.00,NE,45,3.0,-999.0,70,-99.99,,,-99.99,206.479996,,2013-05-02 13:52:00,
2013-05-02 10:00:00,62.0,51.0,-100.00,SSE,157,6.0,-999.0,67,-99.99,,,-99.99,357.279999,,2013-05-02 14:00:00,
2013-05-02 10:43:00,62.0,51.0,-100.00,SSE,157,6.0,-999.0,67,-99.99,,,-99.99,357.279999,,2013-05-02 14:43:00,
2013-05-02 10:52:00,62.0,51.0,-100.00,SSE,157,6.0,-999.0,67,-99.99,,,-99.99,357.279999,,2013-05-02 14:52:00,
2013-05-02 11:00:00,60.0,48.0,-100.00,SE,135,6.0,-999.0,65,-99.99,,,-99.99,499.959991,,2013-05-02 15:00:00,
2013-05-02 11:43:00,60.0,48.0,-100.00,SE,135,6.0,-999.0,65,-99.99,,,-99.99,499.959991,,2013-05-02 15:43:00,
2013-05-02 12:00:00,61.0,48.0,-100.00,SSE,157,6.0,-999.0,61,-99.99,,,-99.99,568.400024,,2013-05-02 16:00:00,
2013-05-02 12:43:00,61.0,48.0,-100.00,SSE,157,6.0,-999.0,61,-99.99,,,-99.99,568.400024,,2013-05-02 16:43:00,
2013-05-02 12:52:00,61.0,48.0,-100.00,SSE,157,6.0,-999.0,61,-99.99,,,-99.99,568.400024,,2013-05-02 16:52:00,
2013-05-02 15:00:00,58.0,46.0,-100.00,SSE,157,9.0,-999.0,63,-99.99,,,-99.99,692.520020,,2013-05-02 19:00:00,
2013-05-02 15:42:00,58.0,46.0,-100.00,SSE,157,9.0,-999.0,63,-99.99,,,-99.99,692.520020,,2013-05-02 19:42:00,
2013-05-02 15:52:00,58.0,46.0,-100.00,SSE,157,9.0,-999.0,63,-99.99,,,-99.99,692.520020,,2013-05-02 19:52:00,
2013-05-02 16:00:00,52.0,43.0,-100.00,South,180,8.0,-999.0,70,-99.99,,,-99.99,559.119995,,2013-05-02 20:00:00,
2013-05-02 16:42:00,52.0,43.0,-100.00,South,180,8.0,-999.0,70,-99.99,,,-99.99,559.119995,,2013-05-02 20:42:00,
2013-05-02 16:52:00,52.0,43.0,-100.00,South,180,8.0,-999.0,70,-99.99,,,-99.99,559.119995,,2013-05-02 20:52:00,
2013-05-02 18:00:00,51.0,42.0,-100.00,SSW,202,7.0,-999.0,69,-99.99,,,-99.99,441.959991,,2013-05-02 22:00:00,
2013-05-02 18:42:00,51.0,42.0,-100.00,SSW,202,7.0,-999.0,69,-99.99,,,-99.99,441.959991,,2013-05-02 22:42:00,
2013-05-02 18:53:00,51.0,42.0,-100.00,SSW,202,7.0,-999.0,69,-99.99,,,-99.99,441.959991,,2013-05-02 22:53:00,
2013-05-02 19:00:00,51.0,41.0,-100.00,SW,225,6.0,-999.0,68,-99.99,,,-99.99,232.000000,,2013-05-02 23:00:00,
2013-05-02 19:42:00,51.0,41.0,-100.00,SW,225,6.0,-999.0,68,-99.99,,,-99.99,232.000000,,2013-05-02 23:42:00,
2013-05-02 19:52:00,51.0,41.0,-100.00,SW,225,6.0,-999.0,68,-99.99,,,-99.99,232.000000,,2013-05-02 23:52:00,
2013-05-02 23:00:00,42.0,37.0,-100.00,South,180,6.0,-999.0,82,-99.99,,,-99.99,0.000000,,2013-05-03 03:00:00,
2013-05-02 23:43:00,42.0,37.0,-100.00,South,180,6.0,-999.0,82,-99.99,,,-99.99,0.000000,,2013-05-03 03:43:00,
2013-05-02 23:53:00,42.0,37.0,-100.00,South,180,6.0,-999.0,82,-99.99,,,-99.99,0.000000,,2013-05-03 03:53:00,